createdAt,value
2019-05-22T00:02:25.437Z,13.28
2019-05-22T00:04:58.339Z,13.23
2019-05-22T00:07:32.083Z,13.22
2019-05-22T00:10:02.538Z,13.24
2019-05-22T00:12:46.030Z,13.26
2019-05-22T00:15:11.835Z,13.20
2019-05-22T00:17:45.846Z,13.23
2019-05-22T00:20:16.337Z,13.20
2019-05-22T00:22:51.178Z,13.23
2019-05-22T00:25:25.651Z,13.22
2019-05-22T00:27:56.731Z,13.17
2019-05-22T00:30:28.941Z,13.17
2019-05-22T00:33:00.551Z,13.15
2019-05-22T00:35:31.480Z,13.13
2019-05-22T00:38:03.520Z,13.07
2019-05-22T00:40:38.044Z,13.02
2019-05-22T00:43:13.770Z,13.00
2019-05-22T00:45:42.760Z,13.04
2019-05-22T00:48:16.341Z,13.03
2019-05-22T00:50:54.539Z,13.02
2019-05-22T00:53:29.237Z,12.91
2019-05-22T00:56:05.521Z,12.84
2019-05-22T00:58:41.128Z,12.90
2019-05-22T01:01:16.633Z,12.81
2019-05-22T01:03:48.576Z,12.83
2019-05-22T01:06:21.547Z,12.77
2019-05-22T01:08:52.804Z,12.82
2019-05-22T01:11:29.579Z,12.75
2019-05-22T01:14:02.195Z,12.75
2019-05-22T01:16:32.960Z,12.74
2019-05-22T01:19:05.846Z,12.62
2019-05-22T01:21:37.541Z,12.67
2019-05-22T01:24:07.833Z,12.72
2019-05-22T01:26:39.508Z,12.74
2019-05-22T01:29:11.562Z,12.74
2019-05-22T01:31:44.744Z,12.74
2019-05-22T01:34:16.425Z,12.76
2019-05-22T01:36:48.338Z,12.71
2019-05-22T01:39:27.279Z,12.74
2019-05-22T01:42:00.769Z,12.73
2019-05-22T01:44:36.014Z,12.78
2019-05-22T01:47:13.545Z,12.78
2019-05-22T01:49:51.104Z,12.74
2019-05-22T01:52:23.239Z,12.67
2019-05-22T01:54:55.332Z,12.68
2019-05-22T01:57:28.582Z,12.65
2019-05-22T01:59:59.165Z,12.61
2019-05-22T02:02:30.553Z,12.63
2019-05-22T02:05:01.921Z,12.68
2019-05-22T02:07:35.011Z,12.67
2019-05-22T02:10:10.818Z,12.64
2019-05-22T02:12:52.723Z,12.65
2019-05-22T02:15:24.952Z,12.62
2019-05-22T02:17:56.596Z,12.60
2019-05-22T02:20:29.014Z,12.52
2019-05-22T02:22:59.904Z,12.51
2019-05-22T02:25:32.655Z,12.51
2019-05-22T02:28:04.041Z,12.48
2019-05-22T02:30:38.647Z,12.44
2019-05-22T02:33:13.332Z,12.46
2019-05-22T02:35:43.407Z,12.42
2019-05-22T02:38:16.866Z,12.34
2019-05-22T02:40:51.804Z,12.27
2019-05-22T02:43:24.643Z,12.32
2019-05-22T02:45:54.811Z,12.35
2019-05-22T02:48:28.242Z,12.31
2019-05-22T02:51:02.835Z,12.32
2019-05-22T02:53:33.403Z,12.31
2019-05-22T02:56:04.012Z,12.29
2019-05-22T02:58:34.678Z,12.34
2019-05-22T03:01:06.550Z,12.29
2019-05-22T03:03:37.568Z,12.22
2019-05-22T03:06:14.159Z,12.22
2019-05-22T03:09:01.000Z,12.21
2019-05-22T03:11:43.847Z,12.21
2019-05-22T03:14:15.876Z,12.22
2019-05-22T03:16:52.044Z,12.26
2019-05-22T03:19:47.961Z,12.22
2019-05-22T03:22:21.462Z,12.20
2019-05-22T03:25:01.983Z,12.24
2019-05-22T03:27:40.411Z,12.20
2019-05-22T03:30:25.807Z,12.23
2019-05-22T03:33:01.199Z,12.20
2019-05-22T03:35:34.805Z,12.25
2019-05-22T03:38:08.535Z,12.27
2019-05-22T03:40:39.523Z,12.25
2019-05-22T03:43:18.528Z,12.23
2019-05-22T03:45:50.689Z,12.19
2019-05-22T03:48:22.672Z,12.21
2019-05-22T03:50:59.783Z,12.23
2019-05-22T03:53:31.777Z,12.17
2019-05-22T03:56:03.060Z,12.15
2019-05-22T03:58:34.668Z,12.16
2019-05-22T04:01:06.895Z,12.16
2019-05-22T04:03:37.040Z,12.19
2019-05-22T04:06:08.606Z,12.21
2019-05-22T04:08:42.527Z,12.19
2019-05-22T04:11:14.541Z,12.23
2019-05-22T04:13:47.765Z,12.21
2019-05-22T04:16:19.517Z,12.23
2019-05-22T04:18:51.258Z,12.24
2019-05-22T04:21:21.664Z,12.21
2019-05-22T04:23:52.051Z,12.25
2019-05-22T04:26:24.027Z,12.25
2019-05-22T04:28:55.865Z,12.16
2019-05-22T04:31:34.807Z,12.19
2019-05-22T04:34:05.612Z,12.20
2019-05-22T04:36:36.965Z,12.21
2019-05-22T04:39:12.241Z,12.23
2019-05-22T04:41:44.061Z,12.20
2019-05-22T04:44:16.283Z,12.24
2019-05-22T04:46:47.852Z,12.21
2019-05-22T04:49:18.563Z,12.18
2019-05-22T04:51:49.033Z,12.18
2019-05-22T04:54:19.609Z,12.23
2019-05-22T04:56:49.877Z,12.23
2019-05-22T04:59:20.480Z,12.23
2019-05-22T05:01:51.148Z,12.18
2019-05-22T05:04:22.875Z,12.21
2019-05-22T05:06:53.918Z,12.21
2019-05-22T05:09:24.645Z,12.19
2019-05-22T05:11:55.258Z,12.29
2019-05-22T05:14:25.389Z,12.31
2019-05-22T05:16:55.853Z,12.35
2019-05-22T05:19:26.401Z,12.36
2019-05-22T05:21:57.049Z,12.40
2019-05-22T05:24:27.656Z,12.39
2019-05-22T05:27:01.967Z,12.34
2019-05-22T05:29:35.057Z,12.24
2019-05-22T05:32:05.909Z,12.32
2019-05-22T05:34:48.014Z,12.33
2019-05-22T05:37:20.218Z,12.35
2019-05-22T05:40:12.425Z,12.33
2019-05-22T05:42:42.660Z,12.35
2019-05-22T05:45:15.289Z,12.38
2019-05-22T05:47:45.960Z,12.42
2019-05-22T05:50:16.630Z,12.29
2019-05-22T05:52:47.316Z,12.22
2019-05-22T05:55:17.707Z,12.26
2019-05-22T05:57:51.161Z,12.21
2019-05-22T06:00:28.242Z,12.34
2019-05-22T06:03:29.115Z,12.32
2019-05-22T06:06:04.702Z,12.36
2019-05-22T06:08:34.926Z,12.37
2019-05-22T06:11:34.497Z,12.35
2019-05-22T06:14:11.948Z,12.29
2019-05-22T06:16:51.119Z,12.28
2019-05-22T06:19:22.459Z,12.37
2019-05-22T06:21:53.485Z,12.41
2019-05-22T06:24:33.150Z,12.30
2019-05-22T06:27:10.911Z,12.32
2019-05-22T06:29:44.867Z,12.34
2019-05-22T06:32:34.618Z,12.37
2019-05-22T06:35:07.778Z,12.36
2019-05-22T06:37:53.046Z,12.32
2019-05-22T06:40:23.776Z,12.35
2019-05-22T06:43:24.690Z,12.34
2019-05-22T06:45:55.620Z,12.36
2019-05-22T06:48:25.755Z,12.30
2019-05-22T06:50:57.110Z,12.23
2019-05-22T06:53:27.296Z,12.25
2019-05-22T06:55:59.033Z,12.23
2019-05-22T06:58:29.335Z,12.20
2019-05-22T07:00:59.900Z,12.16
2019-05-22T07:03:30.905Z,12.15
2019-05-22T07:06:02.894Z,12.12
2019-05-22T07:08:33.257Z,12.13
2019-05-22T07:11:03.278Z,12.12
2019-05-22T07:13:34.222Z,12.25
2019-05-22T07:16:06.126Z,12.16
2019-05-22T07:18:36.369Z,12.17
2019-05-22T07:21:06.718Z,12.39
2019-05-22T07:23:39.609Z,12.35
2019-05-22T07:26:10.489Z,12.39
2019-05-22T07:28:41.280Z,12.54
2019-05-22T07:31:11.918Z,12.57
2019-05-22T07:33:42.257Z,12.69
2019-05-22T07:36:16.792Z,12.80
2019-05-22T07:38:45.426Z,12.74
2019-05-22T07:41:15.897Z,12.84
2019-05-22T07:43:47.569Z,12.89
2019-05-22T07:46:19.480Z,12.73
2019-05-22T07:48:49.739Z,12.68
2019-05-22T07:51:21.517Z,12.55
2019-05-22T07:53:51.756Z,12.60
2019-05-22T07:56:23.076Z,12.67
2019-05-22T07:58:54.454Z,12.62
2019-05-22T08:01:24.694Z,12.60
2019-05-22T08:03:57.443Z,12.66
2019-05-22T08:06:29.520Z,12.64
2019-05-22T08:09:00.380Z,12.62
2019-05-22T08:11:31.313Z,12.56
2019-05-22T08:14:02.095Z,12.53
2019-05-22T08:16:32.521Z,12.57
2019-05-22T08:19:03.069Z,12.56
2019-05-22T08:21:33.412Z,12.43
2019-05-22T08:24:04.203Z,12.41
2019-05-22T08:26:53.220Z,12.43
2019-05-22T08:29:09.864Z,12.44
2019-05-22T08:31:41.536Z,12.44
2019-05-22T08:34:11.833Z,12.37
2019-05-22T08:36:42.086Z,12.38
2019-05-22T08:39:14.040Z,12.42
2019-05-22T08:41:44.918Z,12.37
2019-05-22T08:44:17.493Z,12.33
2019-05-22T08:46:47.747Z,12.35
2019-05-22T08:49:18.313Z,12.21
2019-05-22T08:51:49.661Z,12.26
2019-05-22T08:54:20.221Z,12.33
2019-05-22T08:56:51.543Z,12.41
2019-05-22T08:59:25.271Z,12.29
2019-05-22T09:01:57.218Z,12.29
2019-05-22T09:04:27.418Z,12.21
2019-05-22T09:06:58.946Z,12.23
2019-05-22T09:09:29.317Z,12.17
2019-05-22T09:12:02.297Z,12.21
2019-05-22T09:14:35.715Z,12.28
2019-05-22T09:17:07.569Z,12.37
2019-05-22T09:19:37.949Z,12.35
2019-05-22T09:22:09.011Z,12.44
2019-05-22T09:24:39.123Z,12.32
2019-05-22T09:27:11.533Z,12.34
2019-05-22T09:29:43.220Z,12.33
2019-05-22T09:32:13.341Z,12.34
2019-05-22T09:34:44.574Z,12.40
2019-05-22T09:37:21.839Z,12.35
2019-05-22T09:39:47.340Z,12.43
2019-05-22T09:42:18.449Z,12.41
2019-05-22T09:44:48.772Z,12.45
2019-05-22T09:47:23.710Z,12.47
2019-05-22T09:49:53.853Z,12.54
2019-05-22T09:52:24.254Z,12.49
2019-05-22T09:54:54.679Z,12.44
2019-05-22T09:57:25.899Z,12.48
2019-05-22T09:59:57.670Z,12.52
2019-05-22T10:02:30.964Z,12.53
2019-05-22T10:05:01.272Z,12.65
2019-05-22T10:07:32.961Z,12.60
2019-05-22T10:10:04.001Z,12.62
2019-05-22T10:12:34.439Z,12.56
2019-05-22T10:15:08.256Z,12.73
2019-05-22T10:17:42.369Z,12.81
2019-05-22T10:20:13.651Z,12.64
2019-05-22T10:22:43.855Z,12.54
2019-05-22T10:25:17.173Z,12.63
2019-05-22T10:27:49.978Z,12.72
2019-05-22T10:30:23.418Z,12.91
2019-05-22T10:32:53.519Z,13.08
2019-05-22T10:35:26.867Z,13.15
2019-05-22T10:37:57.732Z,13.24
2019-05-22T10:40:28.341Z,13.14
2019-05-22T10:42:58.446Z,13.06
2019-05-22T10:45:28.749Z,13.01
2019-05-22T10:47:59.002Z,13.21
2019-05-22T10:50:29.925Z,13.15
2019-05-22T10:53:00.246Z,13.18
2019-05-22T10:55:31.944Z,13.04
2019-05-22T10:58:02.346Z,13.00
2019-05-22T11:00:33.137Z,13.04
2019-05-22T11:03:04.341Z,13.12
2019-05-22T11:05:35.212Z,13.33
2019-05-22T11:08:06.601Z,13.50
2019-05-22T11:10:36.979Z,13.49
2019-05-22T11:13:07.553Z,13.47
2019-05-22T11:15:37.789Z,13.55
2019-05-22T11:18:08.189Z,13.56
2019-05-22T11:20:38.379Z,13.68
2019-05-22T11:23:09.385Z,13.94
2019-05-22T11:25:39.710Z,14.08
2019-05-22T11:28:09.771Z,14.34
2019-05-22T11:30:40.512Z,14.56
2019-05-22T11:33:11.263Z,14.50
2019-05-22T11:35:41.664Z,14.35
2019-05-22T11:38:11.675Z,14.29
2019-05-22T11:40:41.996Z,14.30
2019-05-22T11:43:13.088Z,14.12
2019-05-22T11:45:45.395Z,14.10
2019-05-22T11:48:16.286Z,14.32
2019-05-22T11:50:46.766Z,14.56
2019-05-22T11:53:16.941Z,14.79
2019-05-22T11:55:47.584Z,14.73
2019-05-22T11:58:18.387Z,14.85
2019-05-22T12:00:48.538Z,15.00
2019-05-22T12:03:19.167Z,14.98
2019-05-22T12:05:49.363Z,15.02
2019-05-22T12:08:19.716Z,14.91
2019-05-22T12:10:51.349Z,15.09
2019-05-22T12:13:21.713Z,15.07
2019-05-22T12:15:53.100Z,15.04
2019-05-22T12:18:23.928Z,15.07
2019-05-22T12:20:54.494Z,15.24
2019-05-22T12:23:25.016Z,15.19
2019-05-22T12:25:56.033Z,15.05
2019-05-22T12:28:26.574Z,15.08
2019-05-22T12:30:57.683Z,15.07
2019-05-22T12:33:28.543Z,14.97
2019-05-22T12:35:59.517Z,14.94
2019-05-22T12:38:32.849Z,15.01
2019-05-22T12:41:04.446Z,15.04
2019-05-22T12:43:35.194Z,15.16
2019-05-22T12:46:05.255Z,15.11
2019-05-22T12:48:36.638Z,15.26
2019-05-22T12:51:08.042Z,15.51
2019-05-22T12:53:38.621Z,15.59
2019-05-22T12:56:09.105Z,15.56
2019-05-22T12:58:40.304Z,15.55
2019-05-22T13:01:10.909Z,15.46
2019-05-22T13:03:42.143Z,15.34
2019-05-22T13:06:12.980Z,15.25
2019-05-22T13:08:43.356Z,15.24
2019-05-22T13:11:14.396Z,15.25
2019-05-22T13:13:46.488Z,15.06
2019-05-22T13:16:18.088Z,15.02
2019-05-22T13:18:48.506Z,14.94
2019-05-22T13:21:22.544Z,15.10
2019-05-22T13:23:53.443Z,15.35
2019-05-22T13:26:25.369Z,15.45
2019-05-22T13:28:57.693Z,15.64
2019-05-22T13:31:28.230Z,15.61
2019-05-22T13:34:00.563Z,15.71
2019-05-22T13:36:30.824Z,15.89
2019-05-22T13:39:01.369Z,15.96
2019-05-22T13:41:33.673Z,16.28
2019-05-22T13:44:06.006Z,16.36
2019-05-22T13:46:36.939Z,16.51
2019-05-22T13:49:10.903Z,16.41
2019-05-22T13:51:41.165Z,16.40
2019-05-22T13:54:16.463Z,16.27
2019-05-22T13:56:47.613Z,16.03
2019-05-22T13:59:18.337Z,15.90
2019-05-22T14:01:48.764Z,15.79
2019-05-22T14:04:18.864Z,15.75
2019-05-22T14:06:49.488Z,15.43
2019-05-22T14:09:21.594Z,15.37
2019-05-22T14:11:54.087Z,15.27
2019-05-22T14:14:27.539Z,15.18
2019-05-22T14:16:57.548Z,15.19
2019-05-22T14:19:27.825Z,15.23
2019-05-22T14:21:58.187Z,15.29
2019-05-22T14:24:28.270Z,15.28
2019-05-22T14:26:58.401Z,15.45
2019-05-22T14:29:28.756Z,15.88
2019-05-22T14:31:58.926Z,15.91
2019-05-22T14:34:29.951Z,15.93
2019-05-22T14:37:00.093Z,15.88
2019-05-22T14:39:32.527Z,15.82
2019-05-22T14:42:04.731Z,15.93
2019-05-22T14:44:38.053Z,16.02
2019-05-22T14:47:14.616Z,16.06
2019-05-22T14:49:43.969Z,16.10
2019-05-22T14:52:18.140Z,16.13
2019-05-22T14:54:49.506Z,16.11
2019-05-22T14:57:22.963Z,15.92
2019-05-22T14:59:54.167Z,15.87
2019-05-22T15:02:24.493Z,15.87
2019-05-22T15:05:03.136Z,16.04
2019-05-22T15:07:33.598Z,16.45
2019-05-22T15:10:05.731Z,16.60
2019-05-22T15:12:36.222Z,16.54
2019-05-22T15:15:08.520Z,16.49
2019-05-22T15:17:38.712Z,16.43
2019-05-22T15:20:12.766Z,16.43
2019-05-22T15:22:42.931Z,16.86
2019-05-22T15:25:17.665Z,17.13
2019-05-22T15:27:48.331Z,17.08
2019-05-22T15:30:19.841Z,16.91
2019-05-22T15:32:49.879Z,16.70
2019-05-22T15:35:20.317Z,16.58
2019-05-22T15:37:53.783Z,16.77
2019-05-22T15:40:25.213Z,16.88
2019-05-22T15:42:55.297Z,17.15
2019-05-22T15:45:27.472Z,17.16
2019-05-22T15:48:00.723Z,16.94
2019-05-22T15:50:33.943Z,16.93
2019-05-22T15:53:10.998Z,17.21
2019-05-22T15:55:42.639Z,16.92
2019-05-22T15:58:15.273Z,16.76
2019-05-22T16:00:47.600Z,16.75
2019-05-22T16:03:22.036Z,16.77
2019-05-22T16:05:54.090Z,17.01
2019-05-22T16:08:24.736Z,17.23
2019-05-22T16:10:59.745Z,16.81
2019-05-22T16:13:32.163Z,16.81
2019-05-22T16:16:05.726Z,16.59
2019-05-22T16:18:38.943Z,16.42
2019-05-22T16:21:11.453Z,16.28
2019-05-22T16:23:43.142Z,16.18
2019-05-22T16:26:17.670Z,16.21
2019-05-22T16:28:49.182Z,16.28
2019-05-22T16:31:20.400Z,16.55
2019-05-22T16:33:53.542Z,16.88
2019-05-22T16:36:24.262Z,17.01
2019-05-22T16:38:54.703Z,16.92
2019-05-22T16:41:25.830Z,16.74
2019-05-22T16:43:56.871Z,16.52
2019-05-22T16:46:27.877Z,16.71
2019-05-22T16:48:58.915Z,16.95
2019-05-22T16:51:30.500Z,17.03
2019-05-22T16:54:10.293Z,17.16
2019-05-22T16:56:41.516Z,17.36
2019-05-22T16:59:14.440Z,17.42
2019-05-22T17:01:58.637Z,17.08
2019-05-22T17:04:18.571Z,16.92
2019-05-22T17:06:49.573Z,16.71
2019-05-22T17:09:21.404Z,16.70
2019-05-22T17:11:52.547Z,16.56
2019-05-22T17:14:23.725Z,16.58
2019-05-22T17:16:56.427Z,16.49
2019-05-22T17:19:28.037Z,16.57
2019-05-22T17:21:59.634Z,16.44
2019-05-22T17:24:33.997Z,16.39
2019-05-22T17:27:04.574Z,16.32
2019-05-22T17:29:35.283Z,16.34
2019-05-22T17:32:06.316Z,16.23
2019-05-22T17:34:37.717Z,16.21
2019-05-22T17:37:11.940Z,16.09
2019-05-22T17:39:44.368Z,15.97
2019-05-22T17:42:17.417Z,15.87
2019-05-22T17:44:49.675Z,15.74
2019-05-22T17:47:21.818Z,15.70
2019-05-22T17:49:53.310Z,15.67
2019-05-22T17:52:24.428Z,15.66
2019-05-22T17:54:55.030Z,15.60
2019-05-22T17:57:25.206Z,15.59
2019-05-22T17:59:55.795Z,15.53
2019-05-22T18:02:27.465Z,15.47
2019-05-22T18:04:57.656Z,15.42
2019-05-22T18:07:28.525Z,15.38
2019-05-22T18:10:00.369Z,15.31
2019-05-22T18:12:30.847Z,15.27
2019-05-22T18:15:02.378Z,15.22
2019-05-22T18:17:33.679Z,15.14
2019-05-22T18:20:07.954Z,15.17
2019-05-22T18:22:38.561Z,15.12
2019-05-22T18:25:09.370Z,15.01
2019-05-22T18:27:42.399Z,14.98
2019-05-22T18:30:14.372Z,14.91
2019-05-22T18:32:44.359Z,14.88
2019-05-22T18:35:15.137Z,14.86
2019-05-22T18:37:45.220Z,14.82
2019-05-22T18:40:16.419Z,14.73
2019-05-22T18:42:46.436Z,14.64
2019-05-22T18:45:17.270Z,14.58
2019-05-22T18:47:47.591Z,14.52
2019-05-22T18:50:18.551Z,14.45
2019-05-22T18:52:50.209Z,14.38
2019-05-22T18:55:20.747Z,14.33
2019-05-22T18:57:51.002Z,14.27
2019-05-22T19:00:28.146Z,14.18
2019-05-22T19:02:58.540Z,14.11
2019-05-22T19:05:31.633Z,14.01
2019-05-22T19:08:01.988Z,13.91
2019-05-22T19:10:32.241Z,13.83
2019-05-22T19:13:02.772Z,13.74
2019-05-22T19:15:33.712Z,13.67
2019-05-22T19:18:04.453Z,13.62
2019-05-22T19:20:37.250Z,13.55
2019-05-22T19:23:09.037Z,13.49
2019-05-22T19:25:39.202Z,13.46
2019-05-22T19:28:11.082Z,13.40
2019-05-22T19:30:43.813Z,13.34
2019-05-22T19:33:16.697Z,13.29
2019-05-22T19:35:49.569Z,13.25
2019-05-22T19:38:22.852Z,13.20
2019-05-22T19:40:51.934Z,13.14
2019-05-22T19:43:22.315Z,13.06
2019-05-22T19:45:52.730Z,13.01
2019-05-22T19:48:23.166Z,12.97
2019-05-22T19:50:54.905Z,12.89
2019-05-22T19:53:25.246Z,12.79
2019-05-22T19:55:56.063Z,12.70
2019-05-22T19:58:26.893Z,12.65
2019-05-22T20:00:57.053Z,12.56
2019-05-22T20:03:33.212Z,12.52
2019-05-22T20:06:00.468Z,12.45
2019-05-22T20:08:32.101Z,12.42
2019-05-22T20:11:05.936Z,12.37
2019-05-22T20:13:36.563Z,12.31
2019-05-22T20:16:06.587Z,12.28
2019-05-22T20:18:36.852Z,12.23
2019-05-22T20:21:06.913Z,12.16
2019-05-22T20:23:37.347Z,12.07
2019-05-22T20:26:07.830Z,11.99
2019-05-22T20:28:39.479Z,11.93
2019-05-22T20:31:09.492Z,11.86
2019-05-22T20:33:39.826Z,11.83
2019-05-22T20:36:10.827Z,11.80
2019-05-22T20:38:41.111Z,11.75
2019-05-22T20:41:12.736Z,11.76
2019-05-22T20:43:43.380Z,11.70
2019-05-22T20:46:15.804Z,11.66
2019-05-22T20:48:45.813Z,11.69
2019-05-22T20:51:18.383Z,11.73
2019-05-22T20:53:54.302Z,11.77
2019-05-22T20:56:21.708Z,11.78
2019-05-22T20:58:52.546Z,11.79
2019-05-22T21:01:22.829Z,11.76
2019-05-22T21:03:57.482Z,11.73
2019-05-22T21:06:29.006Z,11.63
2019-05-22T21:09:00.399Z,11.56
2019-05-22T21:11:32.535Z,11.46
2019-05-22T21:14:03.327Z,11.37
2019-05-22T21:16:34.266Z,11.32
2019-05-22T21:19:04.712Z,11.28
2019-05-22T21:21:34.974Z,11.24
2019-05-22T21:24:11.371Z,11.20
2019-05-22T21:26:41.411Z,11.13
2019-05-22T21:29:12.498Z,11.06
2019-05-22T21:31:47.508Z,10.96
2019-05-22T21:34:16.941Z,10.85
2019-05-22T21:36:47.554Z,10.79
2019-05-22T21:39:20.057Z,10.75
2019-05-22T21:41:50.399Z,10.78
2019-05-22T21:44:20.487Z,10.81
2019-05-22T21:46:53.618Z,10.84
2019-05-22T21:49:25.744Z,10.84
2019-05-22T21:51:56.117Z,10.80
2019-05-22T21:54:27.054Z,10.79
2019-05-22T21:56:57.244Z,10.77
2019-05-22T21:59:31.409Z,10.77
2019-05-22T22:02:12.494Z,10.79
2019-05-22T22:04:43.348Z,10.86
2019-05-22T22:07:14.156Z,10.90
2019-05-22T22:09:44.970Z,10.89
2019-05-22T22:12:18.335Z,10.89
2019-05-22T22:14:49.753Z,10.85
2019-05-22T22:17:27.308Z,10.79
2019-05-22T22:19:57.759Z,10.75
2019-05-22T22:22:29.590Z,10.69
2019-05-22T22:24:59.748Z,10.59
2019-05-22T22:27:32.191Z,10.49
2019-05-22T22:30:03.924Z,10.38
2019-05-22T22:32:39.487Z,10.31
2019-05-22T22:35:12.477Z,10.28
2019-05-22T22:37:43.945Z,10.30
2019-05-22T22:40:17.900Z,10.33
2019-05-22T22:42:51.251Z,10.32
2019-05-22T22:45:23.940Z,10.27
2019-05-22T22:47:54.007Z,10.17
2019-05-22T22:50:25.472Z,10.11
2019-05-22T22:52:55.807Z,10.05
2019-05-22T22:55:28.175Z,10.04
2019-05-22T22:58:16.153Z,10.05
2019-05-22T23:00:38.790Z,10.10
2019-05-22T23:03:14.691Z,10.04
2019-05-22T23:05:49.244Z,10.04
2019-05-22T23:08:25.350Z,10.06
2019-05-22T23:10:56.377Z,10.04
2019-05-22T23:13:29.643Z,9.99
2019-05-22T23:16:03.323Z,9.95
2019-05-22T23:18:44.358Z,9.91
2019-05-22T23:21:14.844Z,9.91
2019-05-22T23:23:46.128Z,9.89
2019-05-22T23:26:20.531Z,9.86
2019-05-22T23:28:50.817Z,9.86
2019-05-22T23:31:24.977Z,9.84
2019-05-22T23:33:56.867Z,9.84
2019-05-22T23:36:30.044Z,9.86
2019-05-22T23:39:04.236Z,9.81
2019-05-22T23:41:37.100Z,9.77
2019-05-22T23:44:11.692Z,9.72
2019-05-22T23:46:43.041Z,9.68
2019-05-22T23:49:13.981Z,9.63
2019-05-22T23:51:48.166Z,9.55
2019-05-22T23:54:18.527Z,9.58
2019-05-22T23:56:49.909Z,9.58
2019-05-22T23:59:20.320Z,9.59
